sensor_id;sensor_type;location;lat;lon;timestamp;P1;durP1;ratioP1;P2;durP2;ratioP2
15281;SDS011;7742;44.320;19.820;2022-07-01T00:02:00;12.27;;;11.57;;
15281;SDS011;7742;44.320;19.820;2022-07-01T00:04:28;13.10;;;12.30;;
15281;SDS011;7742;44.320;19.820;2022-07-01T00:06:56;13.37;;;12.60;;
15281;SDS011;7742;44.320;19.820;2022-07-01T00:09:25;13.00;;;12.20;;
15281;SDS011;7742;44.320;19.820;2022-07-01T00:11:54;13.13;;;12.37;;
15281;SDS011;7742;44.320;19.820;2022-07-01T00:14:55;13.40;;;12.40;;
15281;SDS011;7742;44.320;19.820;2022-07-01T00:17:23;12.63;;;11.83;;
15281;SDS011;7742;44.320;19.820;2022-07-01T00:19:50;13.07;;;12.13;;
15281;SDS011;7742;44.320;19.820;2022-07-01T00:22:18;13.17;;;12.37;;
15281;SDS011;7742;44.320;19.820;2022-07-01T00:24:47;12.57;;;11.80;;
15281;SDS011;7742;44.320;19.820;2022-07-01T00:27:15;12.80;;;11.97;;
15281;SDS011;7742;44.320;19.820;2022-07-01T00:29:43;12.70;;;12.00;;
15281;SDS011;7742;44.320;19.820;2022-07-01T00:32:17;12.80;;;12.10;;
15281;SDS011;7742;44.320;19.820;2022-07-01T00:34:45;13.23;;;12.43;;
15281;SDS011;7742;44.320;19.820;2022-07-01T00:37:12;12.40;;;11.70;;
15281;SDS011;7742;44.320;19.820;2022-07-01T00:39:40;13.37;;;12.63;;
15281;SDS011;7742;44.320;19.820;2022-07-01T00:42:09;13.80;;;13.10;;
15281;SDS011;7742;44.320;19.820;2022-07-01T00:44:37;13.60;;;12.80;;
15281;SDS011;7742;44.320;19.820;2022-07-01T00:47:08;13.10;;;12.40;;
15281;SDS011;7742;44.320;19.820;2022-07-01T00:49:36;13.70;;;13.00;;
15281;SDS011;7742;44.320;19.820;2022-07-01T00:52:04;12.97;;;12.17;;
15281;SDS011;7742;44.320;19.820;2022-07-01T00:54:32;13.57;;;12.77;;
15281;SDS011;7742;44.320;19.820;2022-07-01T00:57:04;13.37;;;12.47;;
15281;SDS011;7742;44.320;19.820;2022-07-01T00:59:34;12.63;;;11.90;;
15281;SDS011;7742;44.320;19.820;2022-07-01T01:02:02;12.10;;;11.40;;
15281;SDS011;7742;44.320;19.820;2022-07-01T01:04:30;12.40;;;11.60;;
15281;SDS011;7742;44.320;19.820;2022-07-01T01:06:59;12.83;;;11.90;;
15281;SDS011;7742;44.320;19.820;2022-07-01T01:09:27;12.23;;;11.63;;
15281;SDS011;7742;44.320;19.820;2022-07-01T01:11:55;13.00;;;12.30;;
15281;SDS011;7742;44.320;19.820;2022-07-01T01:14:24;12.97;;;12.27;;
15281;SDS011;7742;44.320;19.820;2022-07-01T01:16:53;13.00;;;12.30;;
15281;SDS011;7742;44.320;19.820;2022-07-01T01:19:21;13.30;;;12.50;;
15281;SDS011;7742;44.320;19.820;2022-07-01T01:22:17;13.70;;;12.90;;
15281;SDS011;7742;44.320;19.820;2022-07-01T01:24:46;13.47;;;12.77;;
15281;SDS011;7742;44.320;19.820;2022-07-01T01:27:14;13.47;;;12.67;;
15281;SDS011;7742;44.320;19.820;2022-07-01T01:29:42;12.30;;;11.67;;
15281;SDS011;7742;44.320;19.820;2022-07-01T01:32:13;13.10;;;12.40;;
15281;SDS011;7742;44.320;19.820;2022-07-01T01:34:41;13.03;;;12.33;;
15281;SDS011;7742;44.320;19.820;2022-07-01T01:37:09;12.73;;;12.13;;
15281;SDS011;7742;44.320;19.820;2022-07-01T01:39:38;12.73;;;12.03;;
15281;SDS011;7742;44.320;19.820;2022-07-01T01:42:06;12.80;;;12.17;;
15281;SDS011;7742;44.320;19.820;2022-07-01T01:44:47;12.70;;;11.97;;
15281;SDS011;7742;44.320;19.820;2022-07-01T01:47:15;13.13;;;12.43;;
15281;SDS011;7742;44.320;19.820;2022-07-01T01:49:43;12.70;;;11.93;;
15281;SDS011;7742;44.320;19.820;2022-07-01T01:52:11;12.50;;;11.80;;
15281;SDS011;7742;44.320;19.820;2022-07-01T01:54:40;13.07;;;12.20;;
15281;SDS011;7742;44.320;19.820;2022-07-01T01:57:09;12.90;;;12.20;;
15281;SDS011;7742;44.320;19.820;2022-07-01T01:59:37;12.97;;;12.27;;
15281;SDS011;7742;44.320;19.820;2022-07-01T02:02:16;13.30;;;12.60;;
15281;SDS011;7742;44.320;19.820;2022-07-01T02:04:44;13.13;;;12.37;;
15281;SDS011;7742;44.320;19.820;2022-07-01T02:07:24;12.97;;;12.27;;
15281;SDS011;7742;44.320;19.820;2022-07-01T02:10:00;13.03;;;12.33;;
15281;SDS011;7742;44.320;19.820;2022-07-01T02:12:28;12.90;;;12.17;;
15281;SDS011;7742;44.320;19.820;2022-07-01T02:14:55;13.37;;;12.63;;
15281;SDS011;7742;44.320;19.820;2022-07-01T02:17:23;13.17;;;12.47;;
15281;SDS011;7742;44.320;19.820;2022-07-01T02:19:51;13.27;;;12.47;;
15281;SDS011;7742;44.320;19.820;2022-07-01T02:22:19;12.97;;;12.27;;
15281;SDS011;7742;44.320;19.820;2022-07-01T02:24:47;12.87;;;12.27;;
15281;SDS011;7742;44.320;19.820;2022-07-01T02:27:16;13.83;;;12.93;;
15281;SDS011;7742;44.320;19.820;2022-07-01T02:29:44;12.90;;;12.03;;
15281;SDS011;7742;44.320;19.820;2022-07-01T02:32:12;14.00;;;13.20;;
15281;SDS011;7742;44.320;19.820;2022-07-01T02:34:39;13.53;;;12.73;;
15281;SDS011;7742;44.320;19.820;2022-07-01T02:37:07;14.40;;;13.57;;
15281;SDS011;7742;44.320;19.820;2022-07-01T02:39:35;13.97;;;13.17;;
15281;SDS011;7742;44.320;19.820;2022-07-01T02:42:03;14.20;;;13.43;;
15281;SDS011;7742;44.320;19.820;2022-07-01T02:44:54;14.20;;;13.40;;
15281;SDS011;7742;44.320;19.820;2022-07-01T02:47:22;14.03;;;13.23;;
15281;SDS011;7742;44.320;19.820;2022-07-01T02:50:01;13.83;;;13.13;;
15281;SDS011;7742;44.320;19.820;2022-07-01T02:52:31;14.07;;;13.27;;
15281;SDS011;7742;44.320;19.820;2022-07-01T02:55:00;13.70;;;13.00;;
15281;SDS011;7742;44.320;19.820;2022-07-01T02:57:28;14.07;;;13.17;;
15281;SDS011;7742;44.320;19.820;2022-07-01T02:59:59;13.90;;;13.10;;
15281;SDS011;7742;44.320;19.820;2022-07-01T03:02:35;13.47;;;12.77;;
15281;SDS011;7742;44.320;19.820;2022-07-01T03:05:04;13.33;;;12.53;;
15281;SDS011;7742;44.320;19.820;2022-07-01T03:07:32;13.97;;;13.20;;
15281;SDS011;7742;44.320;19.820;2022-07-01T03:10:00;14.07;;;13.37;;
15281;SDS011;7742;44.320;19.820;2022-07-01T03:12:28;13.97;;;13.10;;
15281;SDS011;7742;44.320;19.820;2022-07-01T03:15:02;15.13;;;13.93;;
15281;SDS011;7742;44.320;19.820;2022-07-01T03:17:30;13.60;;;12.90;;
15281;SDS011;7742;44.320;19.820;2022-07-01T03:19:58;14.60;;;13.70;;
15281;SDS011;7742;44.320;19.820;2022-07-01T03:22:27;14.13;;;13.33;;
15281;SDS011;7742;44.320;19.820;2022-07-01T03:24:55;14.73;;;13.90;;
15281;SDS011;7742;44.320;19.820;2022-07-01T03:27:23;15.73;;;14.70;;
15281;SDS011;7742;44.320;19.820;2022-07-01T03:29:51;15.20;;;14.10;;
15281;SDS011;7742;44.320;19.820;2022-07-01T03:32:20;15.40;;;14.40;;
15281;SDS011;7742;44.320;19.820;2022-07-01T03:34:49;13.97;;;13.27;;
15281;SDS011;7742;44.320;19.820;2022-07-01T03:37:17;14.60;;;13.70;;
15281;SDS011;7742;44.320;19.820;2022-07-01T03:39:45;14.50;;;13.63;;
15281;SDS011;7742;44.320;19.820;2022-07-01T03:42:13;14.27;;;13.47;;
15281;SDS011;7742;44.320;19.820;2022-07-01T03:44:41;13.50;;;12.63;;
15281;SDS011;7742;44.320;19.820;2022-07-01T03:47:10;13.20;;;12.50;;
15281;SDS011;7742;44.320;19.820;2022-07-01T03:49:40;12.80;;;11.97;;
15281;SDS011;7742;44.320;19.820;2022-07-01T03:52:07;12.90;;;12.10;;
15281;SDS011;7742;44.320;19.820;2022-07-01T03:54:35;11.93;;;11.30;;
15281;SDS011;7742;44.320;19.820;2022-07-01T03:57:04;12.63;;;11.77;;
15281;SDS011;7742;44.320;19.820;2022-07-01T03:59:33;14.53;;;13.63;;
15281;SDS011;7742;44.320;19.820;2022-07-01T04:02:01;14.33;;;13.43;;
15281;SDS011;7742;44.320;19.820;2022-07-01T04:04:29;13.87;;;13.07;;
15281;SDS011;7742;44.320;19.820;2022-07-01T04:06:58;13.07;;;12.37;;
15281;SDS011;7742;44.320;19.820;2022-07-01T04:09:27;13.48;;;12.77;;
15281;SDS011;7742;44.320;19.820;2022-07-01T04:11:55;13.88;;;13.07;;
15281;SDS011;7742;44.320;19.820;2022-07-01T04:14:23;14.75;;;13.85;;
15281;SDS011;7742;44.320;19.820;2022-07-01T04:16:51;14.32;;;13.40;;
15281;SDS011;7742;44.320;19.820;2022-07-01T04:19:20;13.75;;;13.05;;
15281;SDS011;7742;44.320;19.820;2022-07-01T04:21:48;14.25;;;13.50;;
15281;SDS011;7742;44.320;19.820;2022-07-01T04:24:34;14.13;;;13.30;;
15281;SDS011;7742;44.320;19.820;2022-07-01T04:27:02;14.27;;;13.40;;
15281;SDS011;7742;44.320;19.820;2022-07-01T04:29:29;14.65;;;13.85;;
15281;SDS011;7742;44.320;19.820;2022-07-01T04:31:58;13.75;;;13.02;;
15281;SDS011;7742;44.320;19.820;2022-07-01T04:34:26;14.23;;;13.30;;
15281;SDS011;7742;44.320;19.820;2022-07-01T04:36:53;14.43;;;13.60;;
15281;SDS011;7742;44.320;19.820;2022-07-01T04:39:22;14.93;;;13.93;;
15281;SDS011;7742;44.320;19.820;2022-07-01T04:41:51;15.02;;;14.27;;
15281;SDS011;7742;44.320;19.820;2022-07-01T04:44:28;14.95;;;14.05;;
15281;SDS011;7742;44.320;19.820;2022-07-01T04:46:56;14.00;;;13.15;;
15281;SDS011;7742;44.320;19.820;2022-07-01T04:49:24;15.40;;;14.35;;
15281;SDS011;7742;44.320;19.820;2022-07-01T04:51:51;13.50;;;12.70;;
15281;SDS011;7742;44.320;19.820;2022-07-01T04:54:19;14.00;;;13.20;;
15281;SDS011;7742;44.320;19.820;2022-07-01T04:56:47;14.70;;;13.48;;
15281;SDS011;7742;44.320;19.820;2022-07-01T04:59:17;13.88;;;12.98;;
15281;SDS011;7742;44.320;19.820;2022-07-01T05:01:46;13.43;;;12.52;;
15281;SDS011;7742;44.320;19.820;2022-07-01T05:04:15;15.00;;;14.20;;
15281;SDS011;7742;44.320;19.820;2022-07-01T05:06:43;15.10;;;14.30;;
15281;SDS011;7742;44.320;19.820;2022-07-01T05:09:11;15.52;;;14.50;;
15281;SDS011;7742;44.320;19.820;2022-07-01T05:11:39;14.57;;;13.80;;
15281;SDS011;7742;44.320;19.820;2022-07-01T05:14:07;14.90;;;13.90;;
15281;SDS011;7742;44.320;19.820;2022-07-01T05:16:36;15.35;;;14.25;;
15281;SDS011;7742;44.320;19.820;2022-07-01T05:19:04;15.48;;;14.43;;
15281;SDS011;7742;44.320;19.820;2022-07-01T05:21:49;14.43;;;13.43;;
15281;SDS011;7742;44.320;19.820;2022-07-01T05:24:23;14.18;;;13.38;;
15281;SDS011;7742;44.320;19.820;2022-07-01T05:26:52;14.32;;;13.55;;
15281;SDS011;7742;44.320;19.820;2022-07-01T05:29:20;14.63;;;13.73;;
15281;SDS011;7742;44.320;19.820;2022-07-01T05:31:50;18.50;;;17.33;;
15281;SDS011;7742;44.320;19.820;2022-07-01T05:34:17;16.15;;;15.15;;
15281;SDS011;7742;44.320;19.820;2022-07-01T05:36:45;16.17;;;15.07;;
15281;SDS011;7742;44.320;19.820;2022-07-01T05:39:13;17.00;;;15.40;;
15281;SDS011;7742;44.320;19.820;2022-07-01T05:41:41;16.08;;;15.13;;
15281;SDS011;7742;44.320;19.820;2022-07-01T05:44:08;16.10;;;15.02;;
15281;SDS011;7742;44.320;19.820;2022-07-01T05:46:36;16.33;;;15.07;;
15281;SDS011;7742;44.320;19.820;2022-07-01T05:49:05;15.57;;;14.75;;
15281;SDS011;7742;44.320;19.820;2022-07-01T05:51:33;15.10;;;14.30;;
15281;SDS011;7742;44.320;19.820;2022-07-01T05:54:01;14.98;;;14.13;;
15281;SDS011;7742;44.320;19.820;2022-07-01T05:56:29;15.38;;;14.43;;
15281;SDS011;7742;44.320;19.820;2022-07-01T05:58:57;14.75;;;13.85;;
15281;SDS011;7742;44.320;19.820;2022-07-01T06:01:25;14.32;;;13.55;;
15281;SDS011;7742;44.320;19.820;2022-07-01T06:03:53;14.77;;;13.98;;
15281;SDS011;7742;44.320;19.820;2022-07-01T06:06:22;14.85;;;14.02;;
15281;SDS011;7742;44.320;19.820;2022-07-01T06:08:50;14.85;;;14.05;;
15281;SDS011;7742;44.320;19.820;2022-07-01T06:11:17;16.00;;;15.00;;
15281;SDS011;7742;44.320;19.820;2022-07-01T06:13:45;14.88;;;13.98;;
15281;SDS011;7742;44.320;19.820;2022-07-01T06:16:13;15.82;;;15.00;;
15281;SDS011;7742;44.320;19.820;2022-07-01T06:18:41;15.80;;;14.95;;
15281;SDS011;7742;44.320;19.820;2022-07-01T06:21:08;15.80;;;14.90;;
15281;SDS011;7742;44.320;19.820;2022-07-01T06:23:37;15.27;;;14.35;;
15281;SDS011;7742;44.320;19.820;2022-07-01T06:26:05;15.60;;;14.70;;
15281;SDS011;7742;44.320;19.820;2022-07-01T06:28:33;16.25;;;15.20;;
15281;SDS011;7742;44.320;19.820;2022-07-01T06:31:01;16.30;;;15.10;;
15281;SDS011;7742;44.320;19.820;2022-07-01T06:33:28;14.65;;;13.90;;
15281;SDS011;7742;44.320;19.820;2022-07-01T06:35:57;14.20;;;13.50;;
15281;SDS011;7742;44.320;19.820;2022-07-01T06:38:25;14.85;;;13.98;;
15281;SDS011;7742;44.320;19.820;2022-07-01T06:40:54;13.60;;;12.85;;
15281;SDS011;7742;44.320;19.820;2022-07-01T06:43:39;14.70;;;13.93;;
15281;SDS011;7742;44.320;19.820;2022-07-01T06:46:08;15.73;;;14.73;;
15281;SDS011;7742;44.320;19.820;2022-07-01T06:48:36;15.82;;;15.00;;
15281;SDS011;7742;44.320;19.820;2022-07-01T06:51:04;16.50;;;15.50;;
15281;SDS011;7742;44.320;19.820;2022-07-01T06:53:32;16.63;;;15.57;;
15281;SDS011;7742;44.320;19.820;2022-07-01T06:56:01;15.85;;;15.05;;
15281;SDS011;7742;44.320;19.820;2022-07-01T06:58:29;15.27;;;14.48;;
15281;SDS011;7742;44.320;19.820;2022-07-01T07:00:56;15.02;;;14.05;;
15281;SDS011;7742;44.320;19.820;2022-07-01T07:03:24;15.15;;;14.25;;
15281;SDS011;7742;44.320;19.820;2022-07-01T07:05:52;15.07;;;14.18;;
15281;SDS011;7742;44.320;19.820;2022-07-01T07:08:20;15.27;;;14.38;;
15281;SDS011;7742;44.320;19.820;2022-07-01T07:10:48;16.48;;;15.45;;
15281;SDS011;7742;44.320;19.820;2022-07-01T07:13:17;16.17;;;15.18;;
15281;SDS011;7742;44.320;19.820;2022-07-01T07:15:45;16.35;;;15.45;;
15281;SDS011;7742;44.320;19.820;2022-07-01T07:18:13;16.52;;;15.60;;
15281;SDS011;7742;44.320;19.820;2022-07-01T07:20:41;16.65;;;15.55;;
15281;SDS011;7742;44.320;19.820;2022-07-01T07:23:08;16.40;;;15.30;;
15281;SDS011;7742;44.320;19.820;2022-07-01T07:25:36;17.33;;;16.30;;
15281;SDS011;7742;44.320;19.820;2022-07-01T07:28:04;17.15;;;16.25;;
15281;SDS011;7742;44.320;19.820;2022-07-01T07:30:33;16.38;;;15.32;;
15281;SDS011;7742;44.320;19.820;2022-07-01T07:33:01;16.08;;;15.18;;
15281;SDS011;7742;44.320;19.820;2022-07-01T07:35:29;17.40;;;16.35;;
15281;SDS011;7742;44.320;19.820;2022-07-01T07:37:56;17.98;;;16.88;;
15281;SDS011;7742;44.320;19.820;2022-07-01T07:40:24;17.60;;;16.60;;
15281;SDS011;7742;44.320;19.820;2022-07-01T07:42:53;17.27;;;16.27;;
15281;SDS011;7742;44.320;19.820;2022-07-01T07:45:20;17.88;;;16.58;;
15281;SDS011;7742;44.320;19.820;2022-07-01T07:47:50;18.27;;;17.35;;
15281;SDS011;7742;44.320;19.820;2022-07-01T07:50:20;16.20;;;15.25;;
15281;SDS011;7742;44.320;19.820;2022-07-01T07:52:48;16.10;;;15.10;;
15281;SDS011;7742;44.320;19.820;2022-07-01T07:55:16;16.60;;;15.63;;
15281;SDS011;7742;44.320;19.820;2022-07-01T07:57:44;17.10;;;16.10;;
15281;SDS011;7742;44.320;19.820;2022-07-01T08:00:12;16.63;;;15.63;;
15281;SDS011;7742;44.320;19.820;2022-07-01T08:02:40;15.90;;;14.90;;
15281;SDS011;7742;44.320;19.820;2022-07-01T08:05:10;15.85;;;14.95;;
15281;SDS011;7742;44.320;19.820;2022-07-01T08:07:38;16.30;;;15.27;;
15281;SDS011;7742;44.320;19.820;2022-07-01T08:10:08;16.13;;;15.23;;
15281;SDS011;7742;44.320;19.820;2022-07-01T08:12:36;16.38;;;15.48;;
15281;SDS011;7742;44.320;19.820;2022-07-01T08:15:04;16.45;;;15.38;;
15281;SDS011;7742;44.320;19.820;2022-07-01T08:17:32;15.32;;;14.15;;
15281;SDS011;7742;44.320;19.820;2022-07-01T08:19:59;15.32;;;14.32;;
15281;SDS011;7742;44.320;19.820;2022-07-01T08:22:29;16.83;;;15.82;;
15281;SDS011;7742;44.320;19.820;2022-07-01T08:24:56;19.10;;;17.92;;
15281;SDS011;7742;44.320;19.820;2022-07-01T08:27:24;18.58;;;17.42;;
15281;SDS011;7742;44.320;19.820;2022-07-01T08:29:52;19.60;;;18.42;;
15281;SDS011;7742;44.320;19.820;2022-07-01T08:32:20;16.92;;;15.93;;
15281;SDS011;7742;44.320;19.820;2022-07-01T08:34:51;16.85;;;15.85;;
15281;SDS011;7742;44.320;19.820;2022-07-01T08:37:18;16.98;;;15.85;;
15281;SDS011;7742;44.320;19.820;2022-07-01T08:39:47;18.38;;;17.08;;
15281;SDS011;7742;44.320;19.820;2022-07-01T08:42:15;18.90;;;17.83;;
15281;SDS011;7742;44.320;19.820;2022-07-01T08:44:43;17.98;;;16.90;;
15281;SDS011;7742;44.320;19.820;2022-07-01T08:47:11;17.15;;;16.15;;
15281;SDS011;7742;44.320;19.820;2022-07-01T08:49:39;16.98;;;15.98;;
15281;SDS011;7742;44.320;19.820;2022-07-01T08:52:07;17.80;;;16.60;;
15281;SDS011;7742;44.320;19.820;2022-07-01T08:54:36;18.35;;;17.08;;
15281;SDS011;7742;44.320;19.820;2022-07-01T08:57:06;17.77;;;16.67;;
15281;SDS011;7742;44.320;19.820;2022-07-01T08:59:34;16.65;;;15.65;;
15281;SDS011;7742;44.320;19.820;2022-07-01T09:02:03;17.40;;;16.15;;
15281;SDS011;7742;44.320;19.820;2022-07-01T09:04:31;15.70;;;14.60;;
15281;SDS011;7742;44.320;19.820;2022-07-01T09:07:01;16.17;;;14.98;;
15281;SDS011;7742;44.320;19.820;2022-07-01T09:09:31;15.35;;;14.45;;
15281;SDS011;7742;44.320;19.820;2022-07-01T09:12:00;15.85;;;14.85;;
15281;SDS011;7742;44.320;19.820;2022-07-01T09:14:30;16.45;;;15.15;;
15281;SDS011;7742;44.320;19.820;2022-07-01T09:16:58;16.98;;;15.88;;
15281;SDS011;7742;44.320;19.820;2022-07-01T09:19:27;17.00;;;15.73;;
15281;SDS011;7742;44.320;19.820;2022-07-01T09:21:55;16.52;;;15.43;;
15281;SDS011;7742;44.320;19.820;2022-07-01T09:24:26;16.30;;;15.38;;
15281;SDS011;7742;44.320;19.820;2022-07-01T09:26:57;15.63;;;14.68;;
15281;SDS011;7742;44.320;19.820;2022-07-01T09:29:26;16.20;;;15.20;;
15281;SDS011;7742;44.320;19.820;2022-07-01T09:31:55;15.65;;;14.50;;
15281;SDS011;7742;44.320;19.820;2022-07-01T09:34:23;16.40;;;15.10;;
15281;SDS011;7742;44.320;19.820;2022-07-01T09:36:56;15.20;;;14.40;;
15281;SDS011;7742;44.320;19.820;2022-07-01T09:39:24;16.77;;;15.77;;
15281;SDS011;7742;44.320;19.820;2022-07-01T09:41:56;17.70;;;16.40;;
15281;SDS011;7742;44.320;19.820;2022-07-01T09:44:23;16.70;;;15.70;;
15281;SDS011;7742;44.320;19.820;2022-07-01T09:46:55;16.45;;;15.45;;
15281;SDS011;7742;44.320;19.820;2022-07-01T09:49:24;16.60;;;15.40;;
15281;SDS011;7742;44.320;19.820;2022-07-01T09:51:52;16.73;;;15.52;;
15281;SDS011;7742;44.320;19.820;2022-07-01T09:54:19;18.33;;;17.02;;
15281;SDS011;7742;44.320;19.820;2022-07-01T09:56:47;16.40;;;15.30;;
15281;SDS011;7742;44.320;19.820;2022-07-01T09:59:15;17.10;;;15.68;;
15281;SDS011;7742;44.320;19.820;2022-07-01T10:01:43;18.20;;;16.90;;
15281;SDS011;7742;44.320;19.820;2022-07-01T10:04:13;18.02;;;16.73;;
15281;SDS011;7742;44.320;19.820;2022-07-01T10:06:46;16.95;;;15.77;;
15281;SDS011;7742;44.320;19.820;2022-07-01T10:09:21;16.92;;;15.73;;
15281;SDS011;7742;44.320;19.820;2022-07-01T10:14:35;15.93;;;14.88;;
15281;SDS011;7742;44.320;19.820;2022-07-01T10:17:05;15.05;;;14.25;;
15281;SDS011;7742;44.320;19.820;2022-07-01T10:19:34;15.27;;;14.30;;
15281;SDS011;7742;44.320;19.820;2022-07-01T10:24:44;16.23;;;15.15;;
15281;SDS011;7742;44.320;19.820;2022-07-01T10:27:19;16.38;;;15.25;;
15281;SDS011;7742;44.320;19.820;2022-07-01T10:29:47;16.45;;;15.40;;
15281;SDS011;7742;44.320;19.820;2022-07-01T10:32:25;16.20;;;15.07;;
15281;SDS011;7742;44.320;19.820;2022-07-01T10:35:04;15.90;;;14.80;;
15281;SDS011;7742;44.320;19.820;2022-07-01T10:37:32;16.20;;;15.00;;
15281;SDS011;7742;44.320;19.820;2022-07-01T10:39:59;16.17;;;15.27;;
15281;SDS011;7742;44.320;19.820;2022-07-01T10:42:28;16.58;;;15.50;;
15281;SDS011;7742;44.320;19.820;2022-07-01T10:45:00;16.00;;;14.93;;
15281;SDS011;7742;44.320;19.820;2022-07-01T10:47:28;16.88;;;15.50;;
15281;SDS011;7742;44.320;19.820;2022-07-01T10:49:57;16.23;;;15.10;;
15281;SDS011;7742;44.320;19.820;2022-07-01T10:52:33;17.58;;;16.27;;
15281;SDS011;7742;44.320;19.820;2022-07-01T10:55:04;16.33;;;15.13;;
15281;SDS011;7742;44.320;19.820;2022-07-01T11:19:08;16.52;;;15.52;;
15281;SDS011;7742;44.320;19.820;2022-07-01T11:57:32;16.20;;;15.30;;
15281;SDS011;7742;44.320;19.820;2022-07-01T12:00:08;16.10;;;15.07;;
15281;SDS011;7742;44.320;19.820;2022-07-01T12:02:56;16.45;;;15.35;;
15281;SDS011;7742;44.320;19.820;2022-07-01T12:08:45;16.23;;;15.13;;
15281;SDS011;7742;44.320;19.820;2022-07-01T12:11:13;16.00;;;14.90;;
15281;SDS011;7742;44.320;19.820;2022-07-01T12:13:46;16.73;;;15.73;;
15281;SDS011;7742;44.320;19.820;2022-07-01T12:16:20;17.38;;;16.13;;
15281;SDS011;7742;44.320;19.820;2022-07-01T12:18:58;17.45;;;16.15;;
15281;SDS011;7742;44.320;19.820;2022-07-01T12:23:14;16.73;;;15.73;;
15281;SDS011;7742;44.320;19.820;2022-07-01T12:27:50;15.80;;;14.90;;
15281;SDS011;7742;44.320;19.820;2022-07-01T12:30:27;17.70;;;16.40;;
15281;SDS011;7742;44.320;19.820;2022-07-01T12:44:55;16.20;;;15.23;;
15281;SDS011;7742;44.320;19.820;2022-07-01T12:50:27;16.55;;;15.57;;
15281;SDS011;7742;44.320;19.820;2022-07-01T12:53:42;16.00;;;14.98;;
15281;SDS011;7742;44.320;19.820;2022-07-01T12:55:58;16.40;;;15.38;;
15281;SDS011;7742;44.320;19.820;2022-07-01T12:58:30;16.80;;;15.85;;
15281;SDS011;7742;44.320;19.820;2022-07-01T13:04:22;14.55;;;13.65;;
15281;SDS011;7742;44.320;19.820;2022-07-01T13:06:52;15.55;;;14.73;;
15281;SDS011;7742;44.320;19.820;2022-07-01T13:09:27;17.95;;;16.85;;
15281;SDS011;7742;44.320;19.820;2022-07-01T13:12:01;16.73;;;15.73;;
15281;SDS011;7742;44.320;19.820;2022-07-01T13:14:43;16.48;;;15.57;;
15281;SDS011;7742;44.320;19.820;2022-07-01T13:17:10;15.93;;;14.95;;
15281;SDS011;7742;44.320;19.820;2022-07-01T13:19:41;15.15;;;14.25;;
15281;SDS011;7742;44.320;19.820;2022-07-01T13:25:26;16.80;;;15.80;;
15281;SDS011;7742;44.320;19.820;2022-07-01T13:27:53;17.02;;;15.88;;
15281;SDS011;7742;44.320;19.820;2022-07-01T13:30:21;15.43;;;14.40;;
15281;SDS011;7742;44.320;19.820;2022-07-01T13:32:52;15.45;;;14.45;;
15281;SDS011;7742;44.320;19.820;2022-07-01T13:35:20;16.08;;;15.18;;
15281;SDS011;7742;44.320;19.820;2022-07-01T13:37:48;15.90;;;14.90;;
15281;SDS011;7742;44.320;19.820;2022-07-01T13:40:16;17.15;;;15.80;;
15281;SDS011;7742;44.320;19.820;2022-07-01T13:42:52;17.35;;;15.82;;
15281;SDS011;7742;44.320;19.820;2022-07-01T13:45:20;15.15;;;14.23;;
15281;SDS011;7742;44.320;19.820;2022-07-01T13:47:48;16.15;;;15.05;;
15281;SDS011;7742;44.320;19.820;2022-07-01T13:51:52;15.93;;;14.82;;
15281;SDS011;7742;44.320;19.820;2022-07-01T13:53:44;14.27;;;13.57;;
15281;SDS011;7742;44.320;19.820;2022-07-01T13:56:12;14.77;;;13.95;;
15281;SDS011;7742;44.320;19.820;2022-07-01T13:58:41;14.98;;;14.07;;
15281;SDS011;7742;44.320;19.820;2022-07-01T14:01:09;15.13;;;14.32;;
15281;SDS011;7742;44.320;19.820;2022-07-01T14:03:37;15.30;;;14.23;;
15281;SDS011;7742;44.320;19.820;2022-07-01T14:06:04;15.52;;;14.52;;
15281;SDS011;7742;44.320;19.820;2022-07-01T14:11:22;16.27;;;15.02;;
15281;SDS011;7742;44.320;19.820;2022-07-01T14:16:45;15.48;;;14.57;;
15281;SDS011;7742;44.320;19.820;2022-07-01T14:19:13;16.05;;;14.95;;
15281;SDS011;7742;44.320;19.820;2022-07-01T14:30:54;16.90;;;15.68;;
15281;SDS011;7742;44.320;19.820;2022-07-01T14:33:36;16.58;;;15.57;;
15281;SDS011;7742;44.320;19.820;2022-07-01T14:36:04;16.77;;;15.57;;
15281;SDS011;7742;44.320;19.820;2022-07-01T14:38:44;17.02;;;15.98;;
15281;SDS011;7742;44.320;19.820;2022-07-01T14:41:29;17.10;;;16.02;;
15281;SDS011;7742;44.320;19.820;2022-07-01T14:44:12;16.75;;;15.82;;
15281;SDS011;7742;44.320;19.820;2022-07-01T14:47:01;16.77;;;15.75;;
15281;SDS011;7742;44.320;19.820;2022-07-01T14:49:49;16.30;;;15.32;;
15281;SDS011;7742;44.320;19.820;2022-07-01T14:52:21;16.38;;;15.35;;
15281;SDS011;7742;44.320;19.820;2022-07-01T14:54:58;16.88;;;15.95;;
15281;SDS011;7742;44.320;19.820;2022-07-01T14:57:26;16.23;;;15.38;;
15281;SDS011;7742;44.320;19.820;2022-07-01T14:59:54;16.35;;;15.30;;
15281;SDS011;7742;44.320;19.820;2022-07-01T15:02:23;16.75;;;15.73;;
15281;SDS011;7742;44.320;19.820;2022-07-01T15:10:43;15.68;;;14.77;;
15281;SDS011;7742;44.320;19.820;2022-07-01T15:13:11;15.85;;;14.85;;
15281;SDS011;7742;44.320;19.820;2022-07-01T15:16:06;15.43;;;14.52;;
15281;SDS011;7742;44.320;19.820;2022-07-01T15:18:48;15.30;;;14.40;;
15281;SDS011;7742;44.320;19.820;2022-07-01T15:21:22;14.93;;;14.07;;
15281;SDS011;7742;44.320;19.820;2022-07-01T15:23:52;14.95;;;13.95;;
15281;SDS011;7742;44.320;19.820;2022-07-01T15:50:32;17.67;;;16.40;;
15281;SDS011;7742;44.320;19.820;2022-07-01T15:53:06;17.73;;;16.63;;
15281;SDS011;7742;44.320;19.820;2022-07-01T15:55:34;17.63;;;16.63;;
15281;SDS011;7742;44.320;19.820;2022-07-01T15:58:03;17.65;;;16.42;;
15281;SDS011;7742;44.320;19.820;2022-07-01T16:00:34;18.13;;;16.85;;
15281;SDS011;7742;44.320;19.820;2022-07-01T16:03:07;17.48;;;16.38;;
15281;SDS011;7742;44.320;19.820;2022-07-01T16:05:37;18.73;;;17.55;;
15281;SDS011;7742;44.320;19.820;2022-07-01T16:08:08;18.98;;;17.88;;
15281;SDS011;7742;44.320;19.820;2022-07-01T16:10:40;19.10;;;17.90;;
15281;SDS011;7742;44.320;19.820;2022-07-01T16:13:10;18.70;;;17.40;;
15281;SDS011;7742;44.320;19.820;2022-07-01T16:15:48;17.92;;;16.92;;
15281;SDS011;7742;44.320;19.820;2022-07-01T16:18:30;17.67;;;16.60;;
15281;SDS011;7742;44.320;19.820;2022-07-01T16:21:13;17.92;;;16.83;;
15281;SDS011;7742;44.320;19.820;2022-07-01T16:23:45;17.60;;;16.60;;
15281;SDS011;7742;44.320;19.820;2022-07-01T16:26:26;17.73;;;16.52;;
15281;SDS011;7742;44.320;19.820;2022-07-01T16:29:01;16.50;;;15.43;;
15281;SDS011;7742;44.320;19.820;2022-07-01T16:31:30;17.65;;;16.70;;
15281;SDS011;7742;44.320;19.820;2022-07-01T16:34:00;17.95;;;16.85;;
15281;SDS011;7742;44.320;19.820;2022-07-01T16:36:29;18.00;;;16.85;;
15281;SDS011;7742;44.320;19.820;2022-07-01T16:39:07;18.27;;;17.20;;
15281;SDS011;7742;44.320;19.820;2022-07-01T16:41:41;17.83;;;16.55;;
15281;SDS011;7742;44.320;19.820;2022-07-01T16:44:10;17.83;;;16.58;;
15281;SDS011;7742;44.320;19.820;2022-07-01T16:46:41;17.88;;;16.88;;
15281;SDS011;7742;44.320;19.820;2022-07-01T16:49:10;18.63;;;17.23;;
15281;SDS011;7742;44.320;19.820;2022-07-01T17:26:27;16.88;;;15.88;;
15281;SDS011;7742;44.320;19.820;2022-07-01T18:39:33;16.70;;;15.75;;
15281;SDS011;7742;44.320;19.820;2022-07-01T18:47:52;16.58;;;15.68;;